Time;durP1;ratioP1;P1;durP2;ratioP2;P2;SDS_P1;SDS_P2;PMS_P1;PMS_P2;Temp;Humidity;BMP_temperature;BMP_pressure;BME280_temperature;BME280_humidity;BME280_pressure;Samples;Min_cycle;Max_cycle;Signal;HPM_P1;HPM_P2
2023/07/30 00:01:23;;;;;;;5.88;1.80;;;;;;;15.39;100.00;100864.53;5052000;28;20070;-75
2023/07/30 00:03:48;;;;;;;6.15;2.78;;;;;;;15.35;100.00;100868.72;5068595;28;20063;-75
2023/07/30 00:06:13;;;;;;;10.18;3.10;;;;;;;15.33;100.00;100858.22;5070051;28;20087;-74
2023/07/30 00:08:38;;;;;;;15.13;2.55;;;;;;;15.31;100.00;100870.25;5070135;28;20541;-75
2023/07/30 00:11:04;;;;;;;4.97;1.75;;;;;;;15.27;100.00;100867.19;5068760;28;20503;-74
2023/07/30 00:13:29;;;;;;;5.00;2.13;;;;;;;15.25;100.00;100871.16;5069979;28;20090;-75
2023/07/30 00:15:55;;;;;;;4.75;1.92;;;;;;;15.22;100.00;100858.16;5069803;28;20111;-75
2023/07/30 00:18:20;;;;;;;9.93;3.17;;;;;;;15.21;100.00;100862.72;5069768;28;20490;-74
2023/07/30 00:20:45;;;;;;;6.75;2.10;;;;;;;15.18;100.00;100862.34;5068496;28;20136;-75
2023/07/30 00:23:11;;;;;;;8.38;2.45;;;;;;;15.18;100.00;100859.66;5069857;28;20035;-74
2023/07/30 00:25:36;;;;;;;6.07;2.40;;;;;;;15.15;100.00;100855.56;5069850;28;20398;-75
2023/07/30 00:28:02;;;;;;;8.30;3.13;;;;;;;15.14;100.00;100859.28;5069689;28;20043;-75
2023/07/30 00:30:27;;;;;;;7.88;3.05;;;;;;;15.03;100.00;100834.00;5069620;28;20119;-75
2023/07/30 00:32:52;;;;;;;8.50;2.78;;;;;;;15.12;100.00;100861.41;5069406;28;20043;-75
2023/07/30 00:35:18;;;;;;;7.45;2.33;;;;;;;15.11;100.00;100860.56;5069516;28;20116;-75
2023/07/30 00:37:43;;;;;;;7.35;2.30;;;;;;;15.10;100.00;100858.94;5069481;28;20024;-75
2023/07/30 00:40:09;;;;;;;11.18;2.15;;;;;;;15.10;100.00;100863.50;5069327;28;20032;-75
2023/07/30 00:42:34;;;;;;;7.47;2.42;;;;;;;15.10;100.00;100864.31;5068093;28;20032;-75
2023/07/30 00:45:00;;;;;;;11.18;3.35;;;;;;;15.05;100.00;100856.09;5067974;28;20041;-74
2023/07/30 00:47:26;;;;;;;5.35;2.70;;;;;;;15.07;100.00;100863.94;5069056;28;20027;-75
2023/07/30 00:49:52;;;;;;;9.27;3.20;;;;;;;15.05;100.00;100866.84;5069341;28;20029;-75
2023/07/30 00:52:20;;;;;;;7.95;2.70;;;;;;;15.05;100.00;100861.47;5068950;28;20020;-75
2023/07/30 00:54:47;;;;;;;6.75;2.70;;;;;;;15.05;100.00;100866.03;5069262;28;20498;-75
2023/07/30 00:57:13;;;;;;;9.43;3.35;;;;;;;15.02;100.00;100874.53;5069210;28;20024;-75
2023/07/30 00:59:38;;;;;;;7.85;2.60;;;;;;;15.00;100.00;100876.63;5069300;28;20039;-75
2023/07/30 01:02:04;;;;;;;4.50;2.35;;;;;;;15.00;100.00;100884.69;5069649;28;20021;-74
2023/07/30 01:04:30;;;;;;;8.35;2.58;;;;;;;14.93;100.00;100874.00;5069141;28;20040;-74
2023/07/30 01:06:55;;;;;;;6.90;2.80;;;;;;;14.93;100.00;100883.94;5067779;28;20067;-75
2023/07/30 01:09:21;;;;;;;11.00;3.10;;;;;;;14.89;100.00;100879.03;5068930;28;20552;-74
2023/07/30 01:11:48;;;;;;;6.43;2.63;;;;;;;14.91;100.00;100884.19;5068963;28;20711;-74
2023/07/30 01:14:14;;;;;;;10.35;3.38;;;;;;;14.88;100.00;100896.19;5068995;28;20025;-75
2023/07/30 01:16:40;;;;;;;8.65;2.88;;;;;;;14.87;100.00;100894.53;5068751;28;20610;-74
2023/07/30 01:19:06;;;;;;;9.15;2.45;;;;;;;14.81;100.00;100887.38;5067489;28;20090;-75
2023/07/30 01:21:35;;;;;;;9.57;2.53;;;;;;;14.78;100.00;100887.81;5067560;28;20024;-74
2023/07/30 01:24:01;;;;;;;4.70;2.88;;;;;;;14.75;100.00;100882.06;5069308;28;20404;-75
2023/07/30 01:26:52;;;;;;;9.65;3.17;;;;;;;14.81;100.00;100900.00;5068944;28;20472;-74
2023/07/30 01:29:42;;;;;;;8.63;3.10;;;;;;;14.79;100.00;100899.38;5068753;28;20028;-74
2023/07/30 01:32:10;;;;;;;6.57;2.80;;;;;;;14.77;100.00;100901.47;5063216;28;20094;-74
2023/07/30 01:34:37;;;;;;;8.10;4.15;;;;;;;14.70;100.00;100898.88;5068812;28;20090;-74
2023/07/30 01:37:04;;;;;;;8.95;2.55;;;;;;;14.72;100.00;100898.63;5068346;28;20040;-75
2023/07/30 01:39:31;;;;;;;8.30;2.85;;;;;;;14.70;100.00;100909.59;5068754;28;20078;-74
2023/07/30 01:41:57;;;;;;;8.07;3.42;;;;;;;14.69;100.00;100906.06;5068504;28;20027;-75
2023/07/30 01:44:22;;;;;;;8.85;3.58;;;;;;;14.70;100.00;100912.28;5068628;28;20025;-75
2023/07/30 01:46:48;;;;;;;9.63;3.47;;;;;;;14.69;100.00;100921.38;5067259;28;20106;-74
2023/07/30 01:49:13;;;;;;;7.68;3.50;;;;;;;14.64;100.00;100908.59;5068720;28;20028;-75
2023/07/30 01:51:38;;;;;;;10.18;3.33;;;;;;;14.65;100.00;100912.94;5051493;28;20040;-74
2023/07/30 01:54:04;;;;;;;11.23;3.20;;;;;;;14.64;100.00;100905.91;5071108;28;20086;-74
2023/07/30 01:56:29;;;;;;;13.35;4.63;;;;;;;14.67;100.00;100916.25;5054383;28;20075;-74
2023/07/30 01:58:55;;;;;;;9.63;2.55;;;;;;;14.67;100.00;100918.06;5072391;28;20043;-75
2023/07/30 02:01:20;;;;;;;11.35;3.05;;;;;;;14.61;100.00;100902.88;5072489;28;20491;-74
2023/07/30 02:03:46;;;;;;;9.07;2.97;;;;;;;14.64;100.00;100916.66;5072518;28;20116;-74
2023/07/30 02:06:11;;;;;;;8.20;2.97;;;;;;;14.60;100.00;100914.66;5072342;28;20105;-74
2023/07/30 02:08:37;;;;;;;7.78;2.17;;;;;;;14.58;100.00;100911.38;5072259;28;20028;-74
2023/07/30 02:11:03;;;;;;;12.98;3.47;;;;;;;14.57;100.00;100910.56;5072244;28;20032;-74
2023/07/30 02:13:28;;;;;;;11.13;3.22;;;;;;;14.60;100.00;100925.41;5072189;28;20024;-74
2023/07/30 02:15:53;;;;;;;11.20;2.63;;;;;;;14.57;100.00;100921.28;5071073;28;20039;-74
2023/07/30 02:18:19;;;;;;;6.60;2.83;;;;;;;14.55;100.00;100914.50;5070744;28;20032;-74
2023/07/30 02:20:44;;;;;;;11.25;2.92;;;;;;;14.54;100.00;100915.53;5072185;28;20036;-74
2023/07/30 02:23:09;;;;;;;9.30;3.40;;;;;;;14.54;100.00;100915.53;5072160;28;20426;-75
2023/07/30 02:25:35;;;;;;;10.55;3.05;;;;;;;14.47;100.00;100907.53;5072221;28;20041;-74
2023/07/30 02:28:01;;;;;;;12.60;3.60;;;;;;;14.50;100.00;100914.31;5072013;28;20029;-74
2023/07/30 02:30:27;;;;;;;8.77;3.53;;;;;;;14.48;100.00;100903.78;5071999;28;20037;-75
2023/07/30 02:32:53;;;;;;;8.02;3.30;;;;;;;14.50;100.00;100909.75;5071647;28;20427;-74
2023/07/30 02:35:18;;;;;;;9.82;3.08;;;;;;;14.53;100.00;100903.16;5070768;28;20068;-74
2023/07/30 02:37:43;;;;;;;7.60;2.55;;;;;;;14.53;100.00;100901.28;5071775;28;20025;-74
2023/07/30 02:40:09;;;;;;;10.85;3.28;;;;;;;14.52;100.00;100902.31;5071783;28;20036;-74
2023/07/30 02:42:35;;;;;;;9.00;4.13;;;;;;;14.52;100.00;100896.13;5072151;28;20024;-74
2023/07/30 02:45:00;;;;;;;7.07;2.30;;;;;;;14.51;100.00;100894.47;5072040;28;20432;-74
2023/07/30 02:47:25;;;;;;;10.75;3.38;;;;;;;14.53;100.00;100893.25;5071514;28;20036;-74
2023/07/30 02:49:51;;;;;;;7.25;3.08;;;;;;;14.52;100.00;100894.25;5070204;28;20037;-74
2023/07/30 02:52:16;;;;;;;13.38;4.55;;;;;;;14.53;100.00;100885.19;5071152;28;20040;-75
2023/07/30 02:54:41;;;;;;;9.25;3.20;;;;;;;14.53;100.00;100879.00;5070141;28;20109;-74
2023/07/30 02:57:07;;;;;;;11.45;4.18;;;;;;;14.53;100.00;100889.75;5070111;28;20169;-74
2023/07/30 02:59:35;;;;;;;15.85;3.70;;;;;;;14.55;100.00;100896.53;5071719;28;20033;-74
2023/07/30 03:02:01;;;;;;;9.75;4.03;;;;;;;14.55;100.00;100891.16;5071495;28;20106;-74
2023/07/30 03:04:27;;;;;;;10.95;4.82;;;;;;;14.57;100.00;100899.00;5070136;28;20040;-75
2023/07/30 03:06:52;;;;;;;9.90;4.45;;;;;;;14.59;100.00;100902.25;5069743;28;20053;-75
2023/07/30 03:09:17;;;;;;;15.82;4.82;;;;;;;14.59;100.00;100897.75;5071158;28;20353;-74
2023/07/30 03:11:43;;;;;;;8.23;4.47;;;;;;;14.62;100.00;100891.94;5069743;28;20029;-75
2023/07/30 03:14:08;;;;;;;11.35;4.13;;;;;;;14.70;100.00;100898.88;5069840;28;20028;-74
2023/07/30 03:16:33;;;;;;;18.25;5.68;;;;;;;14.71;100.00;100905.88;5069871;28;20068;-75
2023/07/30 03:18:59;;;;;;;16.15;4.45;;;;;;;14.75;100.00;100903.53;5071335;28;20031;-75
2023/07/30 03:21:24;;;;;;;17.02;5.35;;;;;;;14.75;100.00;100895.50;5070820;28;20090;-74
2023/07/30 03:23:50;;;;;;;11.68;4.45;;;;;;;14.79;100.00;100905.56;5071055;28;20495;-74
2023/07/30 03:26:15;;;;;;;16.27;5.95;;;;;;;14.82;100.00;100910.50;5069355;28;20093;-75
2023/07/30 03:28:40;;;;;;;17.90;5.32;;;;;;;14.82;100.00;100902.44;5071006;28;20476;-75
2023/07/30 03:31:06;;;;;;;13.55;5.88;;;;;;;14.85;100.00;100909.22;5069398;28;20418;-74
2023/07/30 03:33:31;;;;;;;9.38;3.53;;;;;;;14.82;100.00;100912.34;5070717;28;20115;-75
2023/07/30 03:35:57;;;;;;;11.60;4.22;;;;;;;14.83;100.00;100903.28;5070753;28;20052;-75
2023/07/30 03:38:22;;;;;;;13.93;4.50;;;;;;;14.85;100.00;100909.22;5071071;28;20033;-74
2023/07/30 03:40:48;;;;;;;17.80;4.47;;;;;;;14.84;100.00;100910.28;5070672;28;20059;-75
2023/07/30 03:43:13;;;;;;;17.17;4.72;;;;;;;14.85;100.00;100914.59;5070564;28;20032;-75
2023/07/30 03:45:38;;;;;;;11.38;3.97;;;;;;;14.88;100.00;100914.13;5070647;28;20119;-75
2023/07/30 03:48:04;;;;;;;11.75;3.75;;;;;;;14.86;100.00;100917.06;5070495;28;20483;-74
2023/07/30 03:50:29;;;;;;;12.75;5.65;;;;;;;14.89;100.00;100921.97;5070569;28;20036;-75
2023/07/30 03:52:55;;;;;;;13.15;4.80;;;;;;;14.90;100.00;100918.25;5070214;28;20033;-75
2023/07/30 03:55:20;;;;;;;16.52;4.68;;;;;;;14.91;100.00;100913.72;5070410;28;20365;-75
2023/07/30 03:57:46;;;;;;;10.38;6.15;;;;;;;14.86;100.00;100914.38;5070188;28;20028;-75
2023/07/30 04:00:11;;;;;;;14.38;4.93;;;;;;;14.92;100.00;100925.28;5070327;28;20029;-75
2023/07/30 04:02:37;;;;;;;13.18;5.85;;;;;;;14.93;100.00;100924.22;5070341;28;20487;-75
2023/07/30 04:05:02;;;;;;;13.55;4.53;;;;;;;14.94;100.00;100928.56;5070023;28;20471;-75
2023/07/30 04:07:27;;;;;;;14.73;4.20;;;;;;;14.95;100.00;100924.81;5068927;28;20057;-75
2023/07/30 04:09:53;;;;;;;17.40;4.45;;;;;;;14.97;100.00;100928.13;5069131;28;20127;-75
2023/07/30 04:12:19;;;;;;;16.70;4.63;;;;;;;14.96;100.00;100927.28;5067521;28;20032;-75
2023/07/30 04:14:44;;;;;;;13.10;4.78;;;;;;;14.92;100.00;100920.72;5069181;28;20032;-75
2023/07/30 04:17:09;;;;;;;14.25;5.15;;;;;;;14.97;100.00;100925.44;5069805;28;20146;-75
2023/07/30 04:19:35;;;;;;;15.07;4.82;;;;;;;14.99;100.00;100926.03;5069710;28;20083;-75
2023/07/30 04:22:00;;;;;;;13.02;5.30;;;;;;;15.02;100.00;100933.63;5068535;28;20035;-75
2023/07/30 04:24:26;;;;;;;20.35;4.18;;;;;;;14.99;100.00;100926.84;5069855;28;20118;-75
2023/07/30 04:26:51;;;;;;;18.25;5.72;;;;;;;15.00;100.00;100925.78;5068460;28;20156;-74
2023/07/30 04:29:17;;;;;;;13.02;4.28;;;;;;;15.04;100.00;100931.56;5069594;28;20032;-75
2023/07/30 04:31:42;;;;;;;11.10;4.43;;;;;;;15.05;100.00;100939.38;5069215;28;20433;-75
2023/07/30 04:34:07;;;;;;;14.70;4.97;;;;;;;15.09;100.00;100929.81;5069291;28;20032;-75
2023/07/30 04:36:33;;;;;;;19.23;5.40;;;;;;;15.12;100.00;100936.63;5069294;28;20475;-75
2023/07/30 04:38:58;;;;;;;15.13;4.25;;;;;;;15.13;100.00;100941.75;5068171;28;20063;-75
2023/07/30 04:41:23;;;;;;;19.85;5.13;;;;;;;15.15;100.00;100935.34;5069437;28;20064;-75
2023/07/30 04:43:49;;;;;;;15.77;5.40;;;;;;;15.14;100.00;100934.50;5069445;28;20028;-75
2023/07/30 04:46:14;;;;;;;18.65;6.70;;;;;;;15.15;100.00;100935.34;5068058;28;20028;-74
2023/07/30 04:48:40;;;;;;;21.70;7.05;;;;;;;15.15;100.00;100938.84;5067904;28;20115;-75
2023/07/30 04:51:06;;;;;;;17.17;5.72;;;;;;;15.20;100.00;100939.00;5068822;28;20213;-75
2023/07/30 04:53:31;;;;;;;15.25;5.85;;;;;;;15.23;100.00;100940.41;5067547;28;20119;-75
2023/07/30 04:55:57;;;;;;;15.43;4.72;;;;;;;15.23;100.00;100933.16;5069063;28;20074;-75
2023/07/30 04:58:23;;;;;;;17.75;7.15;;;;;;;15.26;100.00;100932.72;5067591;28;20031;-75
2023/07/30 05:00:48;;;;;;;14.00;5.40;;;;;;;15.31;100.00;100940.09;5069012;28;20093;-75
2023/07/30 05:03:14;;;;;;;15.85;5.50;;;;;;;15.33;100.00;100943.41;5069428;28;20365;-75
2023/07/30 05:05:39;;;;;;;14.05;5.43;;;;;;;15.31;100.00;100938.22;5069076;28;20057;-74
2023/07/30 05:08:05;;;;;;;17.10;6.03;;;;;;;15.36;100.00;100944.81;5051323;28;20546;-75
2023/07/30 05:10:30;;;;;;;15.27;6.75;;;;;;;15.36;100.00;100944.81;5069121;28;20437;-75
2023/07/30 05:12:55;;;;;;;14.63;6.75;;;;;;;15.41;100.00;100956.53;5069145;28;20047;-75
2023/07/30 05:15:21;;;;;;;16.98;5.28;;;;;;;15.33;100.00;100941.53;5068007;28;20737;-75
2023/07/30 05:17:46;;;;;;;17.05;6.43;;;;;;;15.43;100.00;100957.13;5051025;28;20040;-75
2023/07/30 05:20:11;;;;;;;17.17;6.00;;;;;;;15.45;100.00;100965.75;5069217;28;20028;-75
2023/07/30 05:22:37;;;;;;;16.02;5.45;;;;;;;15.41;100.00;100967.28;5069210;28;20064;-75
2023/07/30 05:25:03;;;;;;;16.02;5.45;;;;;;;15.37;100.00;100954.50;5069050;28;20051;-75
2023/07/30 05:27:28;;;;;;;19.83;6.95;;;;;;;15.45;100.00;100965.75;5068274;28;20089;-75
2023/07/30 05:29:55;;;;;;;13.85;6.22;;;;;;;15.46;100.00;100971.97;5069365;28;20047;-76
2023/07/30 05:32:20;;;;;;;19.05;5.80;;;;;;;15.46;100.00;100966.59;5068749;28;20036;-75
2023/07/30 05:34:45;;;;;;;17.20;6.15;;;;;;;15.46;100.00;100970.09;5068887;28;20387;-75
2023/07/30 05:37:11;;;;;;;17.55;6.07;;;;;;;15.48;100.00;100967.16;5067350;28;20152;-75
2023/07/30 05:39:36;;;;;;;15.93;5.53;;;;;;;15.48;100.00;100965.34;5069073;28;20056;-75
2023/07/30 05:42:02;;;;;;;25.73;7.63;;;;;;;15.49;100.00;100964.28;5068925;28;20024;-75
2023/07/30 05:44:27;;;;;;;15.02;6.15;;;;;;;15.49;100.00;100955.41;5068662;28;20138;-75
2023/07/30 05:46:52;;;;;;;25.48;8.32;;;;;;;15.52;100.00;100954.94;5069092;28;20024;-75
2023/07/30 05:49:19;;;;;;;12.35;5.63;;;;;;;15.57;100.00;100955.88;5068754;28;20475;-75
2023/07/30 05:51:44;;;;;;;16.65;6.18;;;;;;;15.54;100.00;100956.34;5068825;28;20033;-75
2023/07/30 05:54:10;;;;;;;16.67;5.18;;;;;;;15.63;100.00;100964.91;5068485;28;20039;-75
2023/07/30 05:56:35;;;;;;;15.60;6.97;;;;;;;15.66;100.00;100958.25;5069154;28;20021;-75
2023/07/30 05:59:01;;;;;;;18.33;7.32;;;;;;;15.69;100.00;100964.06;5068374;28;20112;-74
2023/07/30 06:01:26;;;;;;;22.65;7.05;;;;;;;15.73;100.00;100965.22;5068801;28;20029;-75
2023/07/30 06:03:51;;;;;;;16.90;5.82;;;;;;;15.73;100.00;100956.34;5068936;28;20099;-75
2023/07/30 06:06:17;;;;;;;16.33;6.15;;;;;;;15.74;100.00;100969.53;5066949;28;20048;-75
2023/07/30 06:08:42;;;;;;;17.80;5.43;;;;;;;15.75;100.00;100965.00;5068808;28;20487;-75
2023/07/30 06:11:08;;;;;;;18.02;7.15;;;;;;;15.75;100.00;100963.13;5066748;28;20041;-75
2023/07/30 06:13:34;;;;;;;22.40;6.90;;;;;;;15.83;100.00;100969.25;5068883;28;20030;-75
2023/07/30 06:15:59;;;;;;;21.23;8.02;;;;;;;15.85;100.00;100967.13;5067181;28;20028;-75
2023/07/30 06:18:24;;;;;;;21.85;6.80;;;;;;;15.84;100.00;100963.63;5067318;28;20383;-75
2023/07/30 06:20:50;;;;;;;17.67;7.20;;;;;;;15.91;100.00;100972.41;5068208;28;20472;-75
2023/07/30 06:23:15;;;;;;;20.23;7.63;;;;;;;15.96;100.00;100977.94;5068437;28;20454;-75
2023/07/30 06:25:40;;;;;;;18.52;6.50;;;;;;;16.01;100.00;100977.25;5067372;28;20429;-76
2023/07/30 06:28:06;;;;;;;21.33;6.22;;;;;;;16.00;100.00;100968.34;5068468;28;20032;-75
2023/07/30 06:30:36;;;;;;;15.05;6.15;;;;;;;16.05;100.00;100973.03;5068468;28;20025;-75
2023/07/30 06:33:02;;;;;;;15.65;6.50;;;;;;;16.06;100.00;100972.00;5067092;28;20059;-75
2023/07/30 06:35:27;;;;;;;20.05;6.50;;;;;;;16.10;100.00;100975.88;5068355;28;20632;-74
2023/07/30 06:37:52;;;;;;;15.27;5.80;;;;;;;16.15;100.00;100967.09;5068080;28;20570;-75
2023/07/30 06:40:18;;;;;;;19.38;6.18;;;;;;;16.15;100.00;100972.50;5071993;28;20064;-76
2023/07/30 06:42:43;;;;;;;16.85;6.28;;;;;;;16.21;100.00;100975.06;5072110;28;20107;-75
2023/07/30 06:45:08;;;;;;;14.48;6.35;;;;;;;16.24;100.00;100975.66;5071005;28;20109;-75
2023/07/30 06:47:34;;;;;;;17.48;5.85;;;;;;;16.27;100.00;100972.50;5071169;28;20027;-75
2023/07/30 06:49:59;;;;;;;17.20;5.93;;;;;;;16.32;100.00;100972.63;5070739;28;20043;-74
2023/07/30 06:52:25;;;;;;;22.70;7.90;;;;;;;16.35;100.00;100970.31;5069911;28;20032;-75
2023/07/30 06:54:50;;;;;;;17.02;6.32;;;;;;;16.37;100.00;100965.53;5071701;28;20040;-75
2023/07/30 06:57:15;;;;;;;12.82;5.85;;;;;;;16.47;100.00;100973.00;5053768;28;20391;-74
2023/07/30 06:59:41;;;;;;;15.93;6.90;;;;;;;16.51;100.00;100978.75;5070458;28;20028;-75
2023/07/30 07:02:06;;;;;;;16.20;6.53;;;;;;;16.52;100.00;100972.31;5071029;28;20029;-75
2023/07/30 07:04:31;;;;;;;20.42;6.40;;;;;;;16.55;100.00;100969.16;5071268;28;20429;-75
2023/07/30 07:06:57;;;;;;;18.45;6.90;;;;;;;16.66;100.00;100973.69;5069968;28;20060;-75
2023/07/30 07:09:22;;;;;;;14.43;6.18;;;;;;;16.74;100.00;100976.06;5071239;28;20025;-75
2023/07/30 07:11:47;;;;;;;20.58;5.45;;;;;;;16.77;100.00;100970.25;5069674;28;20476;-74
2023/07/30 07:14:13;;;;;;;12.65;4.65;;;;;;;16.83;100.00;100982.75;5070990;28;20064;-75
2023/07/30 07:16:38;;;;;;;22.00;6.45;;;;;;;16.92;100.00;100977.81;5071178;28;20535;-75
2023/07/30 07:19:03;;;;;;;19.77;5.93;;;;;;;16.98;100.00;100979.59;5071216;28;20409;-75
2023/07/30 07:21:29;;;;;;;15.52;4.88;;;;;;;16.98;100.00;100982.28;5070249;28;20063;-75
2023/07/30 07:23:55;;;;;;;24.15;6.07;;;;;;;17.03;100.00;100981.59;5070324;28;20033;-76
2023/07/30 07:26:20;;;;;;;21.23;6.28;;;;;;;17.09;100.00;100986.84;5052028;28;20119;-75
2023/07/30 07:28:46;;;;;;;13.23;4.30;;;;;;;17.27;100.00;100991.28;5068691;28;20123;-76
2023/07/30 07:31:11;;;;;;;20.60;6.63;;;;;;;17.38;100.00;100997.69;5070267;28;20035;-75
2023/07/30 07:33:37;;;;;;;17.98;5.78;;;;;;;17.34;100.00;101006.47;5070664;28;20036;-76
2023/07/30 07:36:06;;;;;;;17.35;5.53;;;;;;;17.24;100.00;100988.25;5071263;28;20033;-76
2023/07/30 07:38:32;;;;;;;18.92;6.15;;;;;;;17.22;100.00;100993.03;5070663;28;20388;-76
2023/07/30 07:40:58;;;;;;;12.15;3.90;;;;;;;17.27;100.00;100991.28;5071027;28;20052;-76
2023/07/30 07:43:24;;;;;;;18.58;4.95;;;;;;;17.37;100.00;100987.13;5070784;28;20113;-76
2023/07/30 07:45:49;;;;;;;16.30;4.32;;;;;;;17.46;100.00;100981.13;5070197;28;20031;-76
2023/07/30 07:48:14;;;;;;;16.70;6.13;;;;;;;17.68;100.00;100985.88;5068521;28;20032;-75
2023/07/30 07:50:40;;;;;;;15.70;4.63;;;;;;;17.87;100.00;100989.25;5068269;28;20052;-75
2023/07/30 07:53:05;;;;;;;12.13;3.70;;;;;;;17.83;100.00;100993.47;5069995;28;20032;-77
2023/07/30 07:55:30;;;;;;;13.68;4.25;;;;;;;17.75;100.00;100997.34;5070757;28;20664;-77
2023/07/30 07:57:56;;;;;;;19.02;4.70;;;;;;;17.67;100.00;101001.22;5070325;28;20043;-77
2023/07/30 08:00:21;;;;;;;16.50;5.07;;;;;;;17.60;100.00;100999.72;5070176;28;20030;-76
2023/07/30 08:02:47;;;;;;;17.08;4.80;;;;;;;17.56;100.00;101012.88;5070418;28;20028;-77
2023/07/30 08:05:13;;;;;;;13.98;3.53;;;;;;;17.52;100.00;101011.72;5069975;28;20462;-76
2023/07/30 08:07:39;;;;;;;15.35;4.82;;;;;;;17.55;100.00;101003.13;5070128;28;20052;-76
2023/07/30 08:10:05;;;;;;;12.65;4.13;;;;;;;17.61;100.00;101007.59;5069915;28;20033;-76
2023/07/30 08:12:34;;;;;;;13.50;6.60;;;;;;;17.71;100.00;101007.81;5068639;28;20094;-76
2023/07/30 08:14:59;;;;;;;19.60;3.80;;;;;;;17.72;100.00;101008.63;5070078;28;20616;-75
2023/07/30 08:17:25;;;;;;;18.83;4.45;;;;;;;17.86;100.00;101009.97;5069923;28;20032;-75
2023/07/30 08:19:50;;;;;;;17.92;4.50;;;;;;;17.92;100.00;101008.19;5070170;28;20388;-75
2023/07/30 08:22:15;;;;;;;17.00;5.45;;;;;;;17.88;100.00;101017.84;5069459;28;20030;-76
2023/07/30 08:24:41;;;;;;;15.35;5.43;;;;;;;17.92;100.00;101016.28;5069411;28;20143;-76
2023/07/30 08:27:06;;;;;;;13.50;4.05;;;;;;;17.90;100.00;101013.84;5068424;28;20063;-75
2023/07/30 08:29:31;;;;;;;16.08;4.13;;;;;;;17.94;100.00;101022.28;5069675;28;20059;-76
2023/07/30 08:31:57;;;;;;;12.52;3.80;;;;;;;18.03;100.00;101020.84;5068153;28;20039;-76
2023/07/30 08:34:23;;;;;;;15.82;4.78;;;;;;;18.30;100.00;101018.34;5069651;28;20033;-76
2023/07/30 08:36:48;;;;;;;16.75;4.70;;;;;;;18.72;98.63;101031.44;5069620;28;20025;-76
2023/07/30 08:39:14;;;;;;;17.30;4.32;;;;;;;19.21;97.19;101028.94;5069573;28;20039;-77
2023/07/30 08:41:39;;;;;;;18.85;4.68;;;;;;;19.05;94.55;101027.09;5069685;28;20078;-77
2023/07/30 08:44:05;;;;;;;10.40;3.47;;;;;;;18.70;96.28;101022.75;5068137;28;20542;-78
2023/07/30 08:46:30;;;;;;;15.00;4.07;;;;;;;18.48;99.13;101017.28;5068499;28;20054;-79
2023/07/30 08:48:57;;;;;;;16.35;4.82;;;;;;;18.25;99.74;101023.66;5069495;28;20078;-78
2023/07/30 08:51:24;;;;;;;10.82;4.65;;;;;;;18.18;100.00;101017.56;5069486;28;20379;-79
2023/07/30 08:53:51;;;;;;;12.35;4.88;;;;;;;18.01;99.95;101019.44;5069620;28;20437;-80
2023/07/30 08:56:16;;;;;;;12.32;3.53;;;;;;;17.94;100.00;101033.06;5068437;28;20027;-79
2023/07/30 08:58:43;;;;;;;10.23;3.70;;;;;;;17.85;100.00;101040.75;5069627;28;20028;-79
2023/07/30 09:01:10;;;;;;;15.05;4.72;;;;;;;17.70;100.00;101025.03;5066806;28;20115;-79
2023/07/30 09:03:38;;;;;;;11.60;4.15;;;;;;;17.72;100.00;101025.63;5069422;28;20029;-79
2023/07/30 09:06:04;;;;;;;15.65;4.63;;;;;;;17.78;100.00;101036.50;5069007;28;20048;-76
2023/07/30 09:08:31;;;;;;;11.02;4.03;;;;;;;17.78;100.00;101029.22;5067426;28;20040;-78
2023/07/30 09:10:57;;;;;;;11.55;3.70;;;;;;;17.74;100.00;101022.69;5069166;28;20068;-78
2023/07/30 09:13:23;;;;;;;15.10;4.15;;;;;;;17.80;100.00;101026.34;5069242;28;20064;-77
2023/07/30 09:15:50;;;;;;;13.82;4.78;;;;;;;17.77;99.74;101016.81;5068934;28;20040;-78
2023/07/30 09:18:18;;;;;;;10.52;3.97;;;;;;;17.92;100.00;101029.78;5068826;28;20024;-79
2023/07/30 09:20:43;;;;;;;12.70;3.55;;;;;;;18.06;99.61;101039.25;5067684;28;20035;-78
2023/07/30 09:23:10;;;;;;;8.63;3.75;;;;;;;18.20;99.96;101036.25;5068866;28;20379;-78
2023/07/30 09:25:36;;;;;;;12.98;3.55;;;;;;;18.39;100.00;101037.66;5069178;28;20032;-78
2023/07/30 09:28:01;;;;;;;10.90;3.70;;;;;;;18.51;99.49;101040.28;5068888;28;20099;-78
2023/07/30 09:30:27;;;;;;;9.40;3.60;;;;;;;18.60;100.00;101036.09;5068909;28;20456;-78
2023/07/30 09:32:57;;;;;;;8.98;4.07;;;;;;;18.56;99.21;101034.97;5068825;28;20016;-78
2023/07/30 09:35:24;;;;;;;13.30;4.28;;;;;;;18.62;99.40;101032.09;5068600;28;20086;-77
2023/07/30 09:37:57;;;;;;;11.48;3.83;;;;;;;18.88;100.00;101032.53;5067831;28;20041;-78
2023/07/30 09:40:34;;;;;;;9.32;3.92;;;;;;;19.18;98.41;101028.63;5067434;28;20048;-80
2023/07/30 09:43:00;;;;;;;13.57;3.60;;;;;;;19.33;97.04;101028.00;5068152;28;20107;-77
2023/07/30 09:45:26;;;;;;;12.57;4.88;;;;;;;19.57;95.97;101026.72;5068830;28;20099;-77
2023/07/30 09:47:53;;;;;;;11.52;4.47;;;;;;;19.61;92.61;101019.72;5067826;28;20032;-77
2023/07/30 09:50:19;;;;;;;19.60;4.85;;;;;;;19.84;93.58;101013.25;5068456;28;20040;-75
2023/07/30 09:52:45;;;;;;;13.23;4.00;;;;;;;20.02;89.50;101024.78;5068498;28;20537;-74
2023/07/30 09:55:11;;;;;;;11.15;4.03;;;;;;;19.75;88.18;101022.88;5068394;28;20028;-74
2023/07/30 09:57:38;;;;;;;9.02;2.90;;;;;;;19.38;89.23;101020.78;5068368;28;20059;-74
2023/07/30 10:00:05;;;;;;;10.68;3.53;;;;;;;19.12;92.54;101025.03;5068280;28;20030;-74
2023/07/30 10:02:36;;;;;;;9.93;4.85;;;;;;;18.92;94.60;101024.75;5069255;28;20106;-78
2023/07/30 10:05:03;;;;;;;6.18;2.85;;;;;;;18.75;91.24;101032.88;5069454;28;20054;-79
2023/07/30 10:07:30;;;;;;;12.77;4.20;;;;;;;18.67;90.81;101031.34;5069620;28;20060;-80
2023/07/30 10:09:59;;;;;;;6.10;2.53;;;;;;;18.66;91.71;101035.13;5069676;28;20024;-80
2023/07/30 10:12:30;;;;;;;9.38;3.53;;;;;;;18.71;91.80;101035.22;5069992;28;20020;-80
2023/07/30 10:14:56;;;;;;;8.00;3.20;;;;;;;18.72;92.75;101036.84;5071801;28;20394;-79
2023/07/30 10:17:21;;;;;;;13.48;3.97;;;;;;;18.71;89.26;101062.25;5071283;28;20024;-78
2023/07/30 10:19:51;;;;;;;5.97;2.88;;;;;;;18.61;89.02;101060.19;5072946;28;20036;-78
2023/07/30 10:22:22;;;;;;;18.77;3.80;;;;;;;18.56;89.90;101065.50;5072580;28;20506;-80
2023/07/30 10:24:58;;;;;;;;;;;;;;;18.64;92.79;101063.47;5073221;28;20055;-80
2023/07/30 10:27:25;;;;;;;4.75;2.58;;;;;;;18.31;94.83;101063.19;5072464;28;19912;-81
2023/07/30 10:30:09;;;;;;;6.57;2.72;;;;;;;18.14;96.63;101063.13;5073625;28;20028;-81
2023/07/30 10:32:42;;;;;;;5.82;3.75;;;;;;;17.99;100.00;101068.25;5071821;28;20090;-80
2023/07/30 10:35:07;;;;;;;6.10;3.55;;;;;;;17.82;100.00;101075.47;5071706;28;20028;-82
2023/07/30 10:37:33;;;;;;;8.60;3.50;;;;;;;17.55;100.00;101096.72;5072384;28;20082;-75
2023/07/30 10:39:58;;;;;;;7.22;3.53;;;;;;;17.12;100.00;101081.75;5072039;28;20024;-82
2023/07/30 10:42:24;;;;;;;5.82;3.08;;;;;;;16.69;100.00;101099.00;5072311;28;20071;-72
2023/07/30 10:44:49;;;;;;;12.35;3.05;;;;;;;16.45;100.00;101093.56;5070763;28;20035;-72
2023/07/30 10:47:15;;;;;;;9.05;2.78;;;;;;;16.46;100.00;101087.13;5071092;28;20032;-73
2023/07/30 10:49:43;;;;;;;9.18;3.60;;;;;;;16.58;100.00;101079.91;5071475;28;20036;-72
2023/07/30 10:52:09;;;;;;;5.18;3.45;;;;;;;16.70;100.00;101092.59;5072317;28;20032;-82
2023/07/30 10:54:34;;;;;;;11.02;2.85;;;;;;;16.76;100.00;101079.00;5070760;28;20495;-71
2023/07/30 10:57:00;;;;;;;9.45;3.75;;;;;;;16.90;100.00;101082.34;5071794;28;20032;-74
2023/07/30 10:59:25;;;;;;;8.55;3.25;;;;;;;17.01;100.00;101078.81;5071697;28;20086;-74
2023/07/30 11:01:52;;;;;;;8.50;3.50;;;;;;;17.16;100.00;101081.06;5071386;28;20124;-73
2023/07/30 11:04:23;;;;;;;9.80;3.47;;;;;;;17.33;100.00;101080.34;5071624;28;20475;-74
2023/07/30 11:06:50;;;;;;;11.88;4.88;;;;;;;17.50;100.00;101090.19;5070336;28;20048;-73